Sichem Orchid — 9HNC9 — position and weather

sailwx.info

Track history (hours):
 
Tides and Currents Weather Stations Pressure Air Temp Water Temp Dewpoint Dewpoint Depression Visibility Wind Speed Wind Dir Waves Ship Positions

Sichem Orchid

Last reported at 2018-Feb-20 05:00 UTC. Time now 2018-Feb-20 05:38 UTC.
Position N 36°10' W 005°24'.

Length 115 m; draft 5.8 m.

Type: Ship. MMSI: 249213000.

Date/timePositionNaut miles runAvg speedWind from/ knotsBaromVisibWave heightAir tempDewpointWater temp
2018-Feb-20 05:00N 36°10' W 005°24'0 0.2
2018-Feb-20 04:30N 36°10' W 005°24'0 0.1
2018-Feb-20 03:54N 36°10' W 005°24'0 0.1
2018-Feb-20 03:30N 36°10' W 005°24'3 6.7
2018-Feb-20 03:00N 36°07' W 005°24'510.3
2018-Feb-20 02:30N 36°02' W 005°22'611.6
2018-Feb-20 02:00N 35°58' W 005°27'21311.4
2018-Feb-19 07:21N 36°57' W 009°41'612.9
2018-Feb-19 06:55N 37°03' W 009°43'512.6
2018-Feb-19 06:30N 37°08' W 009°44'612.8
2018-Feb-19 06:00N 37°14' W 009°46'612.8
2018-Feb-19 05:30N 37°20' W 009°49'713.1
2018-Feb-19 05:01N 37°27' W 009°50'612.8
2018-Feb-19 04:30N 37°33' W 009°52'612.6
2018-Feb-19 04:00N 37°39' W 009°54'612.7
2018-Feb-19 03:30N 37°45' W 009°56'612.8
2018-Feb-19 03:00N 37°52' W 009°57'613.0
2018-Feb-19 02:30N 37°58' W 009°59'613.1
2018-Feb-19 02:00N 38°04' W 010°01'713.3
2018-Feb-19 01:30N 38°11' W 010°03'713.3
2018-Feb-19 01:00N 38°17' W 010°05'713.4
2018-Feb-19 00:30N 38°24' W 010°07'713.2
2018-Feb-19 00:00N 38°30' W 010°09'713.4
2018-Feb-18 23:30N 38°37' W 010°11'713.2
2018-Feb-18 23:00N 38°43' W 010°12'713.4
2018-Feb-18 22:28N 38°50' W 010°12'613.6
2018-Feb-18 22:01N 38°57' W 010°12'713.9
2018-Feb-18 21:30N 39°04' W 010°12'713.6
2018-Feb-18 21:00N 39°11' W 010°12'913.3
2018-Feb-18 20:19N 39°20' W 010°12'1713.0
2018-Feb-18 19:02N 39°36' W 010°12'113.1
2018-Feb-18 19:00N 39°37' W 010°12'  
Track history (hours):
 
Tides and Currents Weather Stations Pressure Air Temp Water Temp Dewpoint Dewpoint Depression Visibility Wind Speed Wind Dir Waves Ship Positions

Sichem Orchid

Last reported at 2018-Feb-20 05:00 UTC. Time now 2018-Feb-20 05:38 UTC.
Position N 36°10' W 005°24'.

Length 115 m; draft 5.8 m.

Type: Ship. MMSI: 249213000.

Date/timePositionNaut miles runAvg speedWind from/ knotsBaromVisibWave heightAir tempDewpointWater temp
2018-Feb-20 05:00N 36°10' W 005°24'0 0.2
2018-Feb-20 04:30N 36°10' W 005°24'0 0.1
2018-Feb-20 03:54N 36°10' W 005°24'0 0.1
2018-Feb-20 03:30N 36°10' W 005°24'3 6.7
2018-Feb-20 03:00N 36°07' W 005°24'510.3
2018-Feb-20 02:30N 36°02' W 005°22'611.6
2018-Feb-20 02:00N 35°58' W 005°27'21311.4
2018-Feb-19 07:21N 36°57' W 009°41'612.9
2018-Feb-19 06:55N 37°03' W 009°43'512.6
2018-Feb-19 06:30N 37°08' W 009°44'612.8
2018-Feb-19 06:00N 37°14' W 009°46'612.8
2018-Feb-19 05:30N 37°20' W 009°49'713.1
2018-Feb-19 05:01N 37°27' W 009°50'612.8
2018-Feb-19 04:30N 37°33' W 009°52'612.6
2018-Feb-19 04:00N 37°39' W 009°54'612.7
2018-Feb-19 03:30N 37°45' W 009°56'612.8
2018-Feb-19 03:00N 37°52' W 009°57'613.0
2018-Feb-19 02:30N 37°58' W 009°59'613.1
2018-Feb-19 02:00N 38°04' W 010°01'713.3
2018-Feb-19 01:30N 38°11' W 010°03'713.3
2018-Feb-19 01:00N 38°17' W 010°05'713.4
2018-Feb-19 00:30N 38°24' W 010°07'713.2
2018-Feb-19 00:00N 38°30' W 010°09'713.4
2018-Feb-18 23:30N 38°37' W 010°11'713.2
2018-Feb-18 23:00N 38°43' W 010°12'713.4
2018-Feb-18 22:28N 38°50' W 010°12'613.6
2018-Feb-18 22:01N 38°57' W 010°12'713.9
2018-Feb-18 21:30N 39°04' W 010°12'713.6
2018-Feb-18 21:00N 39°11' W 010°12'913.3
2018-Feb-18 20:19N 39°20' W 010°12'1713.0
2018-Feb-18 19:02N 39°36' W 010°12'113.1
2018-Feb-18 19:00N 39°37' W 010°12'  

Dump ship's entire track history